MZ-0039 weather

Mucumbura Airport
Mucumbura, Tete Province, Mozambique

Public forecast

Using degrees Celsius for public forecast. Weather courtesy of forecast.io.

Closest aviation weather report (METAR) to Mucumbura Airport

Closest report is Robert Gabriel Mugabe International Airport, 110.1 nm (203.9 km) SSW. Retrieved 2019/10/16 05:00 UTC (40 minutes ago):

FVRG 160500Z 12009KT 9999 FEW015 17/09 Q1026 NOSIG

Closest aviation forecast (TAF) to Mucumbura Airport

Forecast is more than 6 hours old.

Closest forecast is Robert Gabriel Mugabe International Airport, 110.1 nm (203.9 km) SSW. Retrieved 2019/10/15 18:00 UTC (12 hours ago):

TAF FVRG 151600Z 1518/1624 14012KT CAVOK